createdAt,value
2022-09-21T00:01:30.852Z,13.80
2022-09-21T00:04:01.499Z,13.70
2022-09-21T00:06:32.003Z,13.70
2022-09-21T00:08:59.690Z,13.60
2022-09-21T00:11:29.661Z,13.60
2022-09-21T00:14:04.611Z,13.70
2022-09-21T00:16:32.394Z,13.70
2022-09-21T00:19:02.198Z,13.80
2022-09-21T00:21:30.483Z,13.90
2022-09-21T00:23:59.445Z,13.90
2022-09-21T00:26:27.702Z,13.90
2022-09-21T00:28:57.611Z,13.90
2022-09-21T00:31:26.104Z,13.90
2022-09-21T00:33:53.856Z,13.80
2022-09-21T00:36:24.057Z,13.80
2022-09-21T00:38:53.725Z,13.80
2022-09-21T00:41:21.840Z,13.90
2022-09-21T00:44:27.593Z,13.90
2022-09-21T00:46:59.248Z,13.90
2022-09-21T00:49:28.239Z,13.90
2022-09-21T00:51:58.248Z,13.90
2022-09-21T00:54:39.176Z,13.80
2022-09-21T00:57:08.085Z,13.80
2022-09-21T00:59:38.642Z,13.80
2022-09-21T01:02:06.910Z,13.80
2022-09-21T01:04:35.022Z,13.80
2022-09-21T01:07:07.208Z,13.80
2022-09-21T01:09:35.232Z,13.70
2022-09-21T01:12:24.036Z,13.70
2022-09-21T01:15:13.063Z,13.60
2022-09-21T01:17:58.883Z,13.50
2022-09-21T01:20:48.150Z,13.40
2022-09-21T01:23:44.310Z,13.30
2022-09-21T01:26:36.679Z,13.30
2022-09-21T01:29:07.119Z,13.20
2022-09-21T01:31:55.463Z,13.20
2022-09-21T01:34:29.202Z,13.20
2022-09-21T01:36:59.016Z,13.10
2022-09-21T01:39:27.906Z,13.10
2022-09-21T01:41:56.347Z,13.00
2022-09-21T01:44:28.718Z,13.00
2022-09-21T01:46:57.958Z,13.00
2022-09-21T01:49:31.773Z,13.10
2022-09-21T01:52:05.733Z,13.10
2022-09-21T01:54:46.961Z,13.00
2022-09-21T01:57:26.252Z,12.90
2022-09-21T01:59:57.637Z,12.80
2022-09-21T02:02:51.515Z,12.70
2022-09-21T02:05:21.530Z,12.70
2022-09-21T02:07:50.313Z,12.70
2022-09-21T02:10:59.721Z,12.70
2022-09-21T02:13:41.563Z,12.50
2022-09-21T02:16:39.733Z,12.50
2022-09-21T02:19:28.708Z,12.50
2022-09-21T02:22:43.419Z,12.50
2022-09-21T02:25:18.290Z,12.60
2022-09-21T02:28:01.789Z,12.60
2022-09-21T02:30:30.716Z,12.70
2022-09-21T02:33:10.055Z,12.70
2022-09-21T02:35:59.172Z,12.60
2022-09-21T02:38:54.011Z,12.60
2022-09-21T02:41:29.417Z,12.70
2022-09-21T02:44:33.227Z,12.70
2022-09-21T02:47:07.956Z,12.70
2022-09-21T02:49:40.531Z,12.70
2022-09-21T02:52:15.776Z,12.70
2022-09-21T02:54:47.776Z,12.70
2022-09-21T02:57:18.098Z,12.70
2022-09-21T02:59:45.763Z,12.70
2022-09-21T03:02:13.658Z,12.70
2022-09-21T03:04:43.247Z,12.60
2022-09-21T03:07:10.692Z,12.60
2022-09-21T03:09:38.658Z,12.60
2022-09-21T03:12:06.386Z,12.60
2022-09-21T03:14:34.356Z,12.60
2022-09-21T03:17:02.837Z,12.50
2022-09-21T03:19:30.607Z,12.40
2022-09-21T03:21:58.199Z,12.40
2022-09-21T03:24:44.090Z,12.40
2022-09-21T03:27:12.569Z,12.30
2022-09-21T03:29:40.319Z,12.20
2022-09-21T03:32:07.951Z,12.20
2022-09-21T03:34:36.274Z,12.20
2022-09-21T03:37:06.388Z,12.10
2022-09-21T03:39:34.008Z,12.10
2022-09-21T03:42:02.700Z,12.10
2022-09-21T03:44:30.253Z,12.10
2022-09-21T03:46:58.280Z,12.00
2022-09-21T03:49:26.344Z,12.00
2022-09-21T03:51:55.219Z,12.10
2022-09-21T03:54:22.746Z,12.00
2022-09-21T03:56:50.240Z,12.00
2022-09-21T03:59:17.967Z,12.00
2022-09-21T04:01:45.590Z,12.00
2022-09-21T04:04:13.187Z,12.00
2022-09-21T04:06:41.362Z,11.90
2022-09-21T04:09:08.951Z,11.90
2022-09-21T04:11:36.550Z,12.00
2022-09-21T04:14:05.312Z,11.90
2022-09-21T04:16:32.867Z,11.90
2022-09-21T04:19:00.448Z,11.90
2022-09-21T04:21:28.089Z,11.90
2022-09-21T04:23:55.712Z,12.00
2022-09-21T04:26:24.909Z,11.90
2022-09-21T04:28:56.042Z,11.90
2022-09-21T04:31:25.301Z,11.90
2022-09-21T04:33:54.038Z,11.90
2022-09-21T04:36:23.440Z,11.80
2022-09-21T04:38:51.970Z,11.80
2022-09-21T04:41:19.685Z,11.80
2022-09-21T04:43:48.576Z,11.70
2022-09-21T04:46:18.595Z,11.70
2022-09-21T04:48:47.412Z,11.60
2022-09-21T04:51:16.886Z,11.60
2022-09-21T04:53:44.866Z,11.60
2022-09-21T04:56:15.287Z,11.50
2022-09-21T04:58:43.254Z,11.60
2022-09-21T05:01:11.837Z,11.60
2022-09-21T05:03:39.807Z,11.60
2022-09-21T05:06:07.948Z,11.60
2022-09-21T05:08:54.118Z,11.60
2022-09-21T05:11:21.732Z,11.60
2022-09-21T05:13:49.394Z,11.60
2022-09-21T05:16:18.226Z,11.60
2022-09-21T05:18:46.556Z,11.50
2022-09-21T05:21:14.994Z,11.40
2022-09-21T05:23:42.499Z,11.40
2022-09-21T05:26:10.215Z,11.40
2022-09-21T05:28:40.252Z,11.40
2022-09-21T05:31:39.306Z,11.40
2022-09-21T05:34:07.525Z,11.40
2022-09-21T05:36:45.407Z,11.40
2022-09-21T05:39:13.474Z,11.30
2022-09-21T05:41:41.284Z,11.30
2022-09-21T05:44:16.383Z,11.30
2022-09-21T05:47:01.914Z,11.30
2022-09-21T05:49:37.754Z,11.40
2022-09-21T05:52:23.951Z,11.40
2022-09-21T05:55:28.844Z,11.30
2022-09-21T05:58:37.873Z,11.20
2022-09-21T06:01:26.334Z,11.20
2022-09-21T06:03:55.476Z,11.20
2022-09-21T06:06:23.023Z,11.30
2022-09-21T06:08:50.825Z,11.20
2022-09-21T06:11:18.559Z,11.30
2022-09-21T06:13:46.115Z,11.30
2022-09-21T06:16:14.440Z,11.40
2022-09-21T06:18:42.561Z,11.40
2022-09-21T06:21:10.641Z,11.50
2022-09-21T06:23:38.513Z,11.50
2022-09-21T06:26:06.428Z,11.50
2022-09-21T06:28:34.229Z,11.50
2022-09-21T06:31:01.857Z,11.50
2022-09-21T06:33:29.564Z,11.50
2022-09-21T06:35:59.273Z,11.40
2022-09-21T06:38:29.152Z,11.50
2022-09-21T06:41:02.186Z,11.50
2022-09-21T06:43:29.835Z,11.50
2022-09-21T06:45:59.770Z,11.50
2022-09-21T06:48:29.258Z,11.60
2022-09-21T06:51:01.678Z,11.60
2022-09-21T06:53:30.518Z,11.50
2022-09-21T06:56:05.965Z,11.50
2022-09-21T06:58:34.727Z,11.60
2022-09-21T07:01:12.964Z,11.70
2022-09-21T07:03:43.386Z,11.80
2022-09-21T07:06:14.120Z,11.80
2022-09-21T07:11:30.854Z,11.90
2022-09-21T07:13:58.716Z,12.00
2022-09-21T07:16:26.313Z,12.10
2022-09-21T07:18:53.919Z,12.30
2022-09-21T07:21:21.909Z,12.30
2022-09-21T07:23:49.533Z,12.40
2022-09-21T07:26:17.231Z,12.60
2022-09-21T07:28:44.891Z,12.60
2022-09-21T07:31:14.669Z,12.70
2022-09-21T07:33:43.493Z,12.80
2022-09-21T07:36:13.133Z,12.90
2022-09-21T07:38:42.959Z,13.00
2022-09-21T07:41:15.534Z,13.10
2022-09-21T07:43:43.099Z,13.20
2022-09-21T07:46:13.012Z,13.30
2022-09-21T07:48:41.064Z,13.30
2022-09-21T07:51:11.511Z,13.40
2022-09-21T07:53:41.348Z,13.40
2022-09-21T07:56:12.106Z,13.60
2022-09-21T07:58:59.451Z,13.60
2022-09-21T08:01:27.857Z,13.70
2022-09-21T08:03:58.570Z,13.80
2022-09-21T08:06:29.323Z,13.90
2022-09-21T08:08:58.183Z,14.00
2022-09-21T08:11:27.629Z,14.10
2022-09-21T08:13:58.363Z,14.20
2022-09-21T08:16:29.161Z,14.20
2022-09-21T08:18:57.298Z,14.30
2022-09-21T08:21:24.801Z,14.40
2022-09-21T08:23:52.441Z,14.40
2022-09-21T08:26:20.654Z,14.50
2022-09-21T08:28:51.541Z,14.60
2022-09-21T08:31:21.808Z,14.60
2022-09-21T08:33:50.693Z,14.70
2022-09-21T08:36:19.665Z,14.80
2022-09-21T08:38:48.164Z,14.80
2022-09-21T08:41:44.731Z,14.90
2022-09-21T08:44:24.724Z,15.10
2022-09-21T08:47:11.543Z,15.20
2022-09-21T08:49:41.052Z,15.20
2022-09-21T08:52:19.408Z,15.30
2022-09-21T08:55:06.110Z,15.30
2022-09-21T08:57:34.712Z,15.30
2022-09-21T09:00:07.079Z,15.40
2022-09-21T09:03:25.477Z,15.50
2022-09-21T09:06:07.516Z,15.40
2022-09-21T09:08:56.434Z,15.40
2022-09-21T09:11:32.998Z,15.50
2022-09-21T09:14:31.212Z,15.60
2022-09-21T09:17:16.150Z,15.70
2022-09-21T09:19:47.397Z,15.90
2022-09-21T09:22:25.927Z,15.90
2022-09-21T09:24:58.396Z,16.00
2022-09-21T09:27:34.027Z,16.10
2022-09-21T09:30:23.908Z,16.20
2022-09-21T09:33:03.593Z,16.20
2022-09-21T09:35:36.474Z,16.20
2022-09-21T09:38:29.783Z,16.20
2022-09-21T09:41:22.504Z,16.30
2022-09-21T09:43:56.182Z,16.20
2022-09-21T09:46:43.215Z,16.20
2022-09-21T09:49:42.989Z,16.30
2022-09-21T09:52:14.999Z,16.30
2022-09-21T09:54:44.303Z,16.20
2022-09-21T09:57:13.273Z,16.30
2022-09-21T09:59:55.501Z,16.30
2022-09-21T10:02:25.909Z,16.30
2022-09-21T10:05:06.247Z,16.30
2022-09-21T10:07:37.451Z,16.30
2022-09-21T10:10:27.055Z,16.40
2022-09-21T10:12:56.402Z,16.30
2022-09-21T10:15:27.088Z,16.40
2022-09-21T10:18:11.380Z,16.40
2022-09-21T10:20:38.952Z,16.40
2022-09-21T10:23:06.622Z,16.40
2022-09-21T10:25:39.484Z,16.40
2022-09-21T10:28:12.172Z,16.40
2022-09-21T10:30:39.783Z,16.40
2022-09-21T10:33:25.386Z,16.50
2022-09-21T10:35:53.525Z,16.60
2022-09-21T10:38:29.409Z,16.70
2022-09-21T10:40:57.409Z,16.80
2022-09-21T10:43:43.590Z,17.00
2022-09-21T10:46:12.211Z,17.00
2022-09-21T10:48:39.784Z,17.10
2022-09-21T10:51:26.816Z,17.20
2022-09-21T10:53:54.738Z,17.30
2022-09-21T10:56:22.558Z,17.40
2022-09-21T10:59:12.976Z,17.60
2022-09-21T11:01:52.680Z,17.80
2022-09-21T11:04:31.087Z,17.80
2022-09-21T11:07:09.620Z,17.80
2022-09-21T11:09:44.039Z,17.90
2022-09-21T11:12:11.601Z,18.10
2022-09-21T11:14:41.964Z,18.00
2022-09-21T11:17:32.729Z,18.20
2022-09-21T11:20:20.872Z,18.40
2022-09-21T11:23:37.868Z,18.50
2022-09-21T11:26:05.770Z,18.60
2022-09-21T11:28:41.011Z,18.70
2022-09-21T11:31:21.545Z,18.90
2022-09-21T11:33:56.209Z,19.10
2022-09-21T11:36:32.695Z,19.10
2022-09-21T11:39:47.582Z,19.20
2022-09-21T11:42:41.727Z,19.40
2022-09-21T11:45:36.710Z,19.70
2022-09-21T11:48:15.497Z,19.70
2022-09-21T11:51:20.702Z,19.90
2022-09-21T11:54:26.901Z,19.80
2022-09-21T11:57:09.629Z,19.90
2022-09-21T12:00:25.141Z,19.70
2022-09-21T12:03:23.886Z,19.80
2022-09-21T12:06:12.968Z,19.80
2022-09-21T12:09:12.518Z,20.00
2022-09-21T12:11:51.891Z,19.90
2022-09-21T12:14:28.609Z,19.80
2022-09-21T12:17:16.630Z,19.80
2022-09-21T12:20:17.404Z,19.80
2022-09-21T12:22:48.528Z,19.80
2022-09-21T12:25:22.007Z,19.80
2022-09-21T12:27:56.618Z,19.70
2022-09-21T12:30:24.581Z,19.90
2022-09-21T12:33:19.383Z,19.90
2022-09-21T12:35:59.225Z,19.90
2022-09-21T12:38:44.459Z,19.80
2022-09-21T12:41:41.922Z,19.80
2022-09-21T12:44:52.034Z,19.70
2022-09-21T12:47:29.077Z,19.50
2022-09-21T12:50:05.719Z,19.40
2022-09-21T12:52:34.989Z,19.30
2022-09-21T12:55:21.889Z,19.10
2022-09-21T12:58:16.559Z,19.00
2022-09-21T13:01:15.114Z,19.00
2022-09-21T13:03:45.545Z,19.10
2022-09-21T13:06:38.989Z,18.90
2022-09-21T13:09:13.299Z,18.90
2022-09-21T13:11:56.766Z,19.00
2022-09-21T13:14:27.780Z,18.70
2022-09-21T13:16:58.691Z,18.60
2022-09-21T13:19:29.210Z,18.60
2022-09-21T13:22:16.135Z,18.60
2022-09-21T13:24:45.647Z,18.70
2022-09-21T13:27:13.953Z,18.90
2022-09-21T13:29:43.154Z,18.90
2022-09-21T13:32:14.044Z,19.00
2022-09-21T13:34:43.594Z,18.90
2022-09-21T13:37:20.126Z,18.70
2022-09-21T13:40:03.221Z,18.80
2022-09-21T13:42:30.949Z,18.80
2022-09-21T13:45:24.294Z,18.60
2022-09-21T13:48:00.231Z,18.40
2022-09-21T13:50:42.685Z,18.40
2022-09-21T13:53:28.627Z,18.50
2022-09-21T13:56:02.134Z,18.60
2022-09-21T13:58:36.256Z,18.70
2022-09-21T14:01:09.888Z,18.70
2022-09-21T14:04:02.615Z,18.70
2022-09-21T14:06:47.516Z,18.60
2022-09-21T14:09:38.615Z,18.60
2022-09-21T14:12:13.239Z,18.70
2022-09-21T14:14:41.598Z,18.80
2022-09-21T14:17:35.582Z,18.80
2022-09-21T14:20:05.573Z,18.70
2022-09-21T14:22:34.671Z,18.60
2022-09-21T14:25:25.853Z,18.60
2022-09-21T14:27:58.382Z,18.50
2022-09-21T14:30:29.585Z,18.60
2022-09-21T14:32:59.925Z,18.60
2022-09-21T14:35:33.839Z,18.60
2022-09-21T14:38:10.868Z,18.60
2022-09-21T14:40:42.371Z,18.30
2022-09-21T14:43:29.675Z,18.30
2022-09-21T14:46:32.213Z,18.30
2022-09-21T14:49:09.191Z,18.10
2022-09-21T14:52:18.322Z,18.10
2022-09-21T14:55:20.359Z,18.10
2022-09-21T14:58:12.203Z,18.10
2022-09-21T15:00:45.771Z,18.10
2022-09-21T15:03:46.497Z,18.00
2022-09-21T15:07:00.286Z,17.80
2022-09-21T15:10:21.698Z,17.80
2022-09-21T15:13:00.922Z,17.80
2022-09-21T15:15:51.805Z,17.80
2022-09-21T15:18:23.270Z,17.70
2022-09-21T15:21:03.537Z,17.70
2022-09-21T15:23:41.652Z,17.60
2022-09-21T15:26:26.896Z,17.60
2022-09-21T15:29:09.241Z,17.60
2022-09-21T15:31:42.724Z,17.50
2022-09-21T15:34:13.742Z,17.50
2022-09-21T15:36:43.449Z,17.50
2022-09-21T15:39:30.571Z,17.50
2022-09-21T15:42:22.882Z,17.50
2022-09-21T15:45:06.203Z,17.50
2022-09-21T15:47:34.498Z,17.60
2022-09-21T15:50:02.219Z,17.60
2022-09-21T15:52:35.226Z,17.60
2022-09-21T15:55:11.997Z,17.60
2022-09-21T15:57:43.175Z,17.60
2022-09-21T16:00:17.730Z,17.50
2022-09-21T16:03:04.948Z,17.50
2022-09-21T16:05:50.672Z,17.40
2022-09-21T16:08:40.156Z,17.40
2022-09-21T16:11:12.293Z,17.40
2022-09-21T16:13:59.134Z,17.40
2022-09-21T16:16:27.292Z,17.40
2022-09-21T16:18:58.606Z,17.30
2022-09-21T16:21:37.796Z,17.30
2022-09-21T16:24:18.049Z,17.30
2022-09-21T16:27:00.984Z,17.30
2022-09-21T16:29:43.575Z,17.30
2022-09-21T16:32:27.699Z,17.20
2022-09-21T16:35:17.914Z,17.20
2022-09-21T16:37:45.472Z,17.20
2022-09-21T16:40:14.245Z,17.20
2022-09-21T16:42:43.255Z,17.20
2022-09-21T16:45:23.040Z,17.20
2022-09-21T16:47:52.264Z,17.20
2022-09-21T16:50:20.232Z,17.10
2022-09-21T16:52:52.513Z,17.10
2022-09-21T16:55:24.339Z,17.00
2022-09-21T16:57:54.553Z,17.10
2022-09-21T17:00:22.367Z,17.10
2022-09-21T17:02:50.030Z,17.10
2022-09-21T17:05:20.769Z,17.00
2022-09-21T17:07:59.118Z,17.10
2022-09-21T17:10:34.692Z,17.10
2022-09-21T17:13:50.408Z,17.10
2022-09-21T17:16:20.328Z,17.00
2022-09-21T17:18:49.018Z,17.00
2022-09-21T17:21:17.036Z,17.00
2022-09-21T17:23:45.417Z,17.00
2022-09-21T17:26:19.418Z,17.00
2022-09-21T17:28:47.145Z,17.00
2022-09-21T17:31:19.005Z,16.90
2022-09-21T17:33:50.286Z,16.90
2022-09-21T17:36:19.051Z,16.90
2022-09-21T17:38:46.816Z,16.90
2022-09-21T17:41:40.115Z,16.90
2022-09-21T17:44:18.196Z,16.90
2022-09-21T17:46:54.303Z,16.80
2022-09-21T17:49:21.868Z,16.70
2022-09-21T17:52:08.099Z,16.70
2022-09-21T17:54:36.298Z,16.70
2022-09-21T17:57:40.482Z,16.60
2022-09-21T18:00:14.157Z,16.60
2022-09-21T18:02:41.920Z,16.60
2022-09-21T18:05:25.820Z,16.50
2022-09-21T18:07:53.694Z,16.50
2022-09-21T18:10:23.322Z,16.40
2022-09-21T18:13:28.549Z,16.40
2022-09-21T18:16:03.871Z,16.40
2022-09-21T18:18:31.854Z,16.40
2022-09-21T18:21:21.581Z,16.30
2022-09-21T18:23:49.058Z,16.30
2022-09-21T18:26:18.175Z,16.30
2022-09-21T18:28:59.538Z,16.20
2022-09-21T18:31:43.889Z,16.20
2022-09-21T18:34:29.202Z,16.20
2022-09-21T18:37:17.840Z,16.20
2022-09-21T18:40:09.293Z,16.20
2022-09-21T18:42:54.113Z,16.10
2022-09-21T18:45:27.275Z,16.10
2022-09-21T18:48:10.504Z,16.10
2022-09-21T18:51:03.461Z,16.10
2022-09-21T18:53:47.516Z,16.10
2022-09-21T18:56:15.695Z,16.00
2022-09-21T18:58:43.742Z,16.00
2022-09-21T19:01:17.019Z,16.00
2022-09-21T19:03:45.671Z,16.00
2022-09-21T19:06:28.973Z,16.00
2022-09-21T19:09:09.010Z,16.00
2022-09-21T19:11:45.683Z,16.00
2022-09-21T19:14:29.922Z,16.00
2022-09-21T19:17:18.268Z,15.90
2022-09-21T19:20:24.270Z,15.90
2022-09-21T19:23:12.108Z,15.80
2022-09-21T19:25:54.105Z,15.80
2022-09-21T19:29:03.257Z,15.80
2022-09-21T19:31:31.196Z,15.80
2022-09-21T19:33:59.075Z,15.80
2022-09-21T19:36:26.842Z,15.80
2022-09-21T19:38:54.609Z,15.80
2022-09-21T19:41:50.660Z,15.80
2022-09-21T19:44:36.687Z,15.70
2022-09-21T19:47:42.693Z,15.80
2022-09-21T19:50:21.053Z,15.70
2022-09-21T19:52:49.028Z,15.70
2022-09-21T19:55:39.650Z,15.60
2022-09-21T19:58:26.332Z,15.60
2022-09-21T20:00:56.789Z,15.50
2022-09-21T20:03:35.999Z,15.50
2022-09-21T20:06:18.631Z,15.50
2022-09-21T20:09:06.364Z,15.40
2022-09-21T20:11:47.281Z,15.40
2022-09-21T20:14:20.508Z,15.40
2022-09-21T20:16:54.196Z,15.40
2022-09-21T20:19:34.155Z,15.40
2022-09-21T20:22:17.011Z,15.40
2022-09-21T20:24:50.723Z,15.30
2022-09-21T20:27:36.048Z,15.30
2022-09-21T20:30:07.227Z,15.30
2022-09-21T20:32:37.447Z,15.30
2022-09-21T20:35:20.348Z,15.40
2022-09-21T20:37:48.335Z,15.40
2022-09-21T20:40:16.368Z,15.40
2022-09-21T20:42:44.349Z,15.30
2022-09-21T20:45:13.407Z,15.20
2022-09-21T20:47:41.219Z,15.20
2022-09-21T20:50:12.033Z,15.20
2022-09-21T20:52:41.542Z,15.20
2022-09-21T20:55:13.542Z,15.20
2022-09-21T20:57:41.310Z,15.20
2022-09-21T21:00:11.820Z,15.20
2022-09-21T21:02:39.718Z,15.20
2022-09-21T21:05:08.266Z,15.20
2022-09-21T21:07:36.481Z,15.10
2022-09-21T21:10:04.454Z,15.10
2022-09-21T21:12:32.484Z,15.10
2022-09-21T21:15:00.061Z,15.10
2022-09-21T21:17:27.619Z,15.20
2022-09-21T21:19:55.213Z,15.20
2022-09-21T21:22:22.699Z,15.20
2022-09-21T21:24:50.192Z,15.20
2022-09-21T21:27:21.074Z,15.20
2022-09-21T21:29:51.048Z,15.20
2022-09-21T21:32:21.265Z,15.20
2022-09-21T21:34:50.524Z,15.20
2022-09-21T21:37:20.124Z,15.20
2022-09-21T21:39:48.304Z,15.20
2022-09-21T21:42:18.196Z,15.20
2022-09-21T21:44:46.745Z,15.20
2022-09-21T21:47:38.274Z,15.20
2022-09-21T21:50:02.178Z,15.20
2022-09-21T21:52:30.432Z,15.10
2022-09-21T21:54:57.876Z,15.10
2022-09-21T21:57:25.368Z,15.00
2022-09-21T21:59:53.197Z,15.00
2022-09-21T22:02:20.978Z,15.00
2022-09-21T22:04:48.508Z,15.00
2022-09-21T22:07:16.095Z,14.90
2022-09-21T22:09:43.536Z,14.90
2022-09-21T22:12:12.020Z,15.00
2022-09-21T22:14:39.811Z,14.90
2022-09-21T22:17:07.350Z,14.90
2022-09-21T22:19:35.247Z,14.90
2022-09-21T22:22:02.785Z,14.90
2022-09-21T22:24:30.343Z,14.90
2022-09-21T22:26:58.096Z,14.80
2022-09-21T22:29:25.757Z,14.90
2022-09-21T22:31:55.536Z,14.80
2022-09-21T22:34:24.657Z,14.80
2022-09-21T22:36:52.228Z,14.90
2022-09-21T22:39:19.988Z,14.90
2022-09-21T22:41:47.519Z,14.90
2022-09-21T22:44:15.266Z,14.90
2022-09-21T22:46:42.840Z,14.90
2022-09-21T22:49:10.465Z,14.90
2022-09-21T22:51:39.087Z,14.90
2022-09-21T22:54:06.908Z,15.00
2022-09-21T22:56:34.976Z,14.90
2022-09-21T22:59:04.518Z,14.90
2022-09-21T23:01:38.505Z,14.90
2022-09-21T23:04:09.301Z,14.90
2022-09-21T23:06:38.830Z,15.00
2022-09-21T23:09:14.327Z,14.90
2022-09-21T23:11:43.711Z,14.90
2022-09-21T23:14:12.907Z,15.00
2022-09-21T23:16:41.311Z,14.90
2022-09-21T23:19:15.874Z,15.00
2022-09-21T23:21:51.478Z,15.00
2022-09-21T23:24:20.311Z,15.00
2022-09-21T23:26:48.074Z,15.00
2022-09-21T23:29:16.588Z,15.00
2022-09-21T23:31:45.715Z,15.00
2022-09-21T23:34:15.114Z,15.00
2022-09-21T23:36:43.497Z,15.00
2022-09-21T23:39:13.104Z,15.00
2022-09-21T23:41:44.243Z,15.00
2022-09-21T23:44:12.013Z,15.00
2022-09-21T23:46:40.601Z,15.00
2022-09-21T23:49:08.481Z,15.10
2022-09-21T23:51:36.515Z,15.00
2022-09-21T23:54:05.030Z,15.00
2022-09-21T23:56:33.206Z,15.00
2022-09-21T23:59:00.838Z,15.00
